This is the latest recevied weather packets stored in our database for station/object PD0HRY-12. If no packets are shown the sender has not sent any weather packets the latest 10 day(s).
| Time | Temp. | Humidity | Pressure | Rain* | Wind** | Luminosity | Snow |
|---|---|---|---|---|---|---|---|
| 1777370401 | 16.67° C | 44% | 1015 hPa | - | - | - | - |
| 1777368604 | 15.56° C | 46% | 1016 hPa | - | - | - | - |
| 1777366803 | 14.44° C | 49% | 1016 hPa | - | - | - | - |
| 1777365001 | 13.33° C | 53% | 1016 hPa | - | - | - | - |
| 1777363205 | 12.22° C | 56% | 1015 hPa | - | - | - | - |
| 1777361403 | 10° C | 63% | 1015 hPa | - | - | - | - |
| 1777359601 | 9.44° C | 65% | 1015 hPa | - | - | - | - |
| 1777357805 | 9.44° C | 67% | 1015 hPa | - | - | - | - |
| 1777356003 | 9.44° C | 67% | 1015 hPa | - | - | - | - |
| 1777354202 | 8.33° C | 71% | 1015 hPa | - | - | - | - |
| 1777352405 | 7.78° C | 74% | 1014 hPa | - | - | - | - |
| 1777350604 | 7.78° C | 76% | 1014 hPa | - | - | - | - |
| 1777348802 | 7.78° C | 75% | 1014 hPa | - | - | - | - |
| 1777347000 | 7.78° C | 76% | 1014 hPa | - | - | - | - |
| 1777345204 | 8.33° C | 74% | 1014 hPa | - | - | - | - |
| 1777343403 | 8.33° C | 75% | 1015 hPa | - | - | - | - |
| 1777341601 | 8.33° C | 74% | 1015 hPa | - | - | - | - |
| 1777339804 | 8.33° C | 73% | 1015 hPa | - | - | - | - |
| 1777338003 | 8.89° C | 70% | 1015 hPa | - | - | - | - |
| 1777336201 | 8.89° C | 69% | 1015 hPa | - | - | - | - |
| 1777332604 | 10° C | 67% | 1015 hPa | - | - | - | - |
| 1777330802 | 10.56° C | 65% | 1015 hPa | - | - | - | - |
| 1777329001 | 10.56° C | 62% | 1015 hPa | - | - | - | - |
| 1777327205 | 11.11° C | 60% | 1014 hPa | - | - | - | - |
| 1777325403 | 11.67° C | 58% | 1014 hPa | - | - | - | - |
* Rain since midnight (hover to see other rain measurements)
** Current wind speed in m/s (hover to see current wind gust speed)